sensor_id;sensor_type;location;lat;lon;timestamp;P1;durP1;ratioP1;P2;durP2;ratioP2
30378;SDS011;17168;49.164;9.060;2022-11-20T12:36:37;7.30;;;3.47;;
30378;SDS011;17168;49.164;9.060;2022-11-20T12:39:22;7.80;;;3.10;;
30378;SDS011;17168;49.164;9.060;2022-11-20T12:45:56;7.45;;;3.38;;
30378;SDS011;17168;49.164;9.060;2022-11-20T12:51:44;5.88;;;3.28;;
30378;SDS011;17168;49.164;9.060;2022-11-20T12:54:46;9.40;;;3.20;;
30378;SDS011;17168;49.164;9.060;2022-11-20T13:21:14;6.15;;;2.65;;
30378;SDS011;17168;49.164;9.060;2022-11-20T13:23:48;6.45;;;2.55;;
30378;SDS011;17168;49.164;9.060;2022-11-20T13:26:20;5.18;;;2.30;;
30378;SDS011;17168;49.164;9.060;2022-11-20T13:28:59;7.65;;;2.35;;
30378;SDS011;17168;49.164;9.060;2022-11-20T13:31:35;5.45;;;2.35;;
30378;SDS011;17168;49.164;9.060;2022-11-20T13:34:11;2.90;;;1.83;;
30378;SDS011;17168;49.164;9.060;2022-11-20T13:36:49;3.47;;;1.05;;
30378;SDS011;17168;49.164;9.060;2022-11-20T13:39:25;7.03;;;1.63;;
30378;SDS011;17168;49.164;9.060;2022-11-20T13:41:58;3.60;;;1.50;;
30378;SDS011;17168;49.164;9.060;2022-11-20T13:44:33;6.18;;;1.80;;
30378;SDS011;17168;49.164;9.060;2022-11-20T13:47:17;2.38;;;0.90;;
30378;SDS011;17168;49.164;9.060;2022-11-20T13:49:54;5.82;;;1.27;;
30378;SDS011;17168;49.164;9.060;2022-11-20T13:52:35;2.70;;;0.75;;
30378;SDS011;17168;49.164;9.060;2022-11-20T13:55:18;5.85;;;1.20;;
30378;SDS011;17168;49.164;9.060;2022-11-20T13:58:06;5.00;;;1.40;;
30378;SDS011;17168;49.164;9.060;2022-11-20T14:00:50;2.03;;;1.10;;
30378;SDS011;17168;49.164;9.060;2022-11-20T14:03:29;5.00;;;1.10;;
30378;SDS011;17168;49.164;9.060;2022-11-20T14:06:27;4.65;;;1.10;;
30378;SDS011;17168;49.164;9.060;2022-11-20T14:09:01;2.63;;;1.40;;
30378;SDS011;17168;49.164;9.060;2022-11-20T14:11:33;4.28;;;1.20;;
30378;SDS011;17168;49.164;9.060;2022-11-20T14:14:13;3.05;;;1.15;;
30378;SDS011;17168;49.164;9.060;2022-11-20T14:16:47;3.45;;;0.90;;
30378;SDS011;17168;49.164;9.060;2022-11-20T14:19:23;3.15;;;0.80;;
30378;SDS011;17168;49.164;9.060;2022-11-20T14:22:14;4.32;;;1.00;;
30378;SDS011;17168;49.164;9.060;2022-11-20T14:25:01;3.83;;;0.80;;
30378;SDS011;17168;49.164;9.060;2022-11-20T14:27:36;1.83;;;0.50;;
30378;SDS011;17168;49.164;9.060;2022-11-20T14:30:12;3.35;;;1.15;;
30378;SDS011;17168;49.164;9.060;2022-11-20T14:32:46;2.72;;;0.80;;
30378;SDS011;17168;49.164;9.060;2022-11-20T14:35:20;3.35;;;0.60;;
30378;SDS011;17168;49.164;9.060;2022-11-20T14:37:56;2.42;;;0.80;;
30378;SDS011;17168;49.164;9.060;2022-11-20T14:40:29;2.45;;;0.70;;
30378;SDS011;17168;49.164;9.060;2022-11-20T14:48:23;1.83;;;0.80;;
30378;SDS011;17168;49.164;9.060;2022-11-20T14:51:01;2.72;;;1.00;;
30378;SDS011;17168;49.164;9.060;2022-11-20T14:53:36;5.82;;;0.90;;
30378;SDS011;17168;49.164;9.060;2022-11-20T14:56:08;2.00;;;0.77;;
30378;SDS011;17168;49.164;9.060;2022-11-20T14:58:40;2.43;;;0.80;;
30378;SDS011;17168;49.164;9.060;2022-11-20T15:01:12;0.70;;;0.60;;
30378;SDS011;17168;49.164;9.060;2022-11-20T15:03:45;4.40;;;0.80;;
30378;SDS011;17168;49.164;9.060;2022-11-20T15:06:25;3.77;;;0.83;;
30378;SDS011;17168;49.164;9.060;2022-11-20T15:08:58;2.90;;;0.95;;
30378;SDS011;17168;49.164;9.060;2022-11-20T15:11:31;3.28;;;0.90;;
30378;SDS011;17168;49.164;9.060;2022-11-20T15:14:05;2.05;;;1.00;;
30378;SDS011;17168;49.164;9.060;2022-11-20T15:16:42;3.20;;;0.90;;
30378;SDS011;17168;49.164;9.060;2022-11-20T15:19:16;1.48;;;0.70;;
30378;SDS011;17168;49.164;9.060;2022-11-20T15:21:50;2.58;;;0.90;;
30378;SDS011;17168;49.164;9.060;2022-11-20T15:24:23;4.95;;;0.80;;
30378;SDS011;17168;49.164;9.060;2022-11-20T15:26:56;1.90;;;0.90;;
30378;SDS011;17168;49.164;9.060;2022-11-20T15:29:28;4.68;;;0.93;;
30378;SDS011;17168;49.164;9.060;2022-11-20T15:31:59;2.35;;;1.20;;
30378;SDS011;17168;49.164;9.060;2022-11-20T15:34:31;5.13;;;1.00;;
30378;SDS011;17168;49.164;9.060;2022-11-20T15:37:06;3.88;;;1.10;;
30378;SDS011;17168;49.164;9.060;2022-11-20T15:39:39;4.10;;;1.20;;
30378;SDS011;17168;49.164;9.060;2022-11-20T15:42:11;4.82;;;0.90;;
30378;SDS011;17168;49.164;9.060;2022-11-20T15:44:43;3.63;;;1.20;;
30378;SDS011;17168;49.164;9.060;2022-11-20T16:18:18;8.35;;;5.75;;
30378;SDS011;17168;49.164;9.060;2022-11-20T16:23:23;5.63;;;2.28;;
30378;SDS011;17168;49.164;9.060;2022-11-20T16:25:57;3.85;;;1.70;;
30378;SDS011;17168;49.164;9.060;2022-11-20T16:28:28;6.13;;;3.38;;
30378;SDS011;17168;49.164;9.060;2022-11-20T16:31:07;3.55;;;1.50;;
30378;SDS011;17168;49.164;9.060;2022-11-20T16:33:39;6.63;;;3.25;;
30378;SDS011;17168;49.164;9.060;2022-11-20T16:36:13;4.95;;;2.90;;
30378;SDS011;17168;49.164;9.060;2022-11-20T16:41:18;5.85;;;2.03;;
30378;SDS011;17168;49.164;9.060;2022-11-20T16:46:23;5.85;;;3.40;;
30378;SDS011;17168;49.164;9.060;2022-11-20T16:48:58;5.15;;;2.42;;
30378;SDS011;17168;49.164;9.060;2022-11-20T16:51:32;8.63;;;4.60;;
30378;SDS011;17168;49.164;9.060;2022-11-20T16:54:06;8.40;;;2.05;;
30378;SDS011;17168;49.164;9.060;2022-11-20T16:56:40;4.10;;;1.90;;
30378;SDS011;17168;49.164;9.060;2022-11-20T16:59:13;3.55;;;1.42;;
30378;SDS011;17168;49.164;9.060;2022-11-20T17:01:45;4.55;;;2.30;;
30378;SDS011;17168;49.164;9.060;2022-11-20T17:04:19;3.60;;;2.13;;
30378;SDS011;17168;49.164;9.060;2022-11-20T17:06:52;5.57;;;2.85;;
30378;SDS011;17168;49.164;9.060;2022-11-20T17:09:24;6.68;;;2.92;;
30378;SDS011;17168;49.164;9.060;2022-11-20T17:11:57;4.57;;;3.13;;
30378;SDS011;17168;49.164;9.060;2022-11-20T17:14:30;11.68;;;6.00;;
30378;SDS011;17168;49.164;9.060;2022-11-20T17:17:02;8.15;;;5.03;;
30378;SDS011;17168;49.164;9.060;2022-11-20T17:19:34;6.70;;;4.25;;
30378;SDS011;17168;49.164;9.060;2022-11-20T17:22:06;7.22;;;3.38;;
30378;SDS011;17168;49.164;9.060;2022-11-20T17:24:38;7.13;;;2.75;;
30378;SDS011;17168;49.164;9.060;2022-11-20T17:27:11;4.97;;;2.55;;
30378;SDS011;17168;49.164;9.060;2022-11-20T17:29:43;5.78;;;3.30;;
30378;SDS011;17168;49.164;9.060;2022-11-20T17:32:15;8.95;;;2.92;;
30378;SDS011;17168;49.164;9.060;2022-11-20T17:34:47;4.93;;;2.80;;
30378;SDS011;17168;49.164;9.060;2022-11-20T17:37:19;9.93;;;2.95;;
30378;SDS011;17168;49.164;9.060;2022-11-20T17:39:51;8.35;;;4.65;;
30378;SDS011;17168;49.164;9.060;2022-11-20T17:42:24;6.70;;;2.90;;
30378;SDS011;17168;49.164;9.060;2022-11-20T17:45:00;4.05;;;2.25;;
30378;SDS011;17168;49.164;9.060;2022-11-20T17:47:34;6.82;;;2.30;;
30378;SDS011;17168;49.164;9.060;2022-11-20T17:50:07;6.63;;;2.67;;
30378;SDS011;17168;49.164;9.060;2022-11-20T17:52:39;4.38;;;2.13;;
30378;SDS011;17168;49.164;9.060;2022-11-20T17:55:11;5.65;;;2.20;;
30378;SDS011;17168;49.164;9.060;2022-11-20T17:57:44;3.85;;;2.00;;
30378;SDS011;17168;49.164;9.060;2022-11-20T18:00:22;6.78;;;2.50;;
30378;SDS011;17168;49.164;9.060;2022-11-20T18:02:55;5.93;;;2.00;;
30378;SDS011;17168;49.164;9.060;2022-11-20T18:05:27;3.33;;;1.85;;
30378;SDS011;17168;49.164;9.060;2022-11-20T18:07:59;6.72;;;2.35;;
30378;SDS011;17168;49.164;9.060;2022-11-20T18:10:31;4.88;;;2.22;;
30378;SDS011;17168;49.164;9.060;2022-11-20T18:13:05;5.68;;;2.10;;
30378;SDS011;17168;49.164;9.060;2022-11-20T18:15:36;2.38;;;1.30;;
30378;SDS011;17168;49.164;9.060;2022-11-20T18:18:08;1.80;;;1.02;;
30378;SDS011;17168;49.164;9.060;2022-11-20T18:20:40;2.95;;;0.90;;
30378;SDS011;17168;49.164;9.060;2022-11-20T18:23:12;1.50;;;1.00;;
30378;SDS011;17168;49.164;9.060;2022-11-20T18:25:44;1.02;;;0.70;;
30378;SDS011;17168;49.164;9.060;2022-11-20T18:28:18;2.90;;;1.00;;
30378;SDS011;17168;49.164;9.060;2022-11-20T18:30:50;3.90;;;1.05;;
30378;SDS011;17168;49.164;9.060;2022-11-20T18:33:22;4.60;;;0.98;;
30378;SDS011;17168;49.164;9.060;2022-11-20T18:36:06;2.35;;;1.17;;
30378;SDS011;17168;49.164;9.060;2022-11-20T18:38:40;3.58;;;1.45;;
30378;SDS011;17168;49.164;9.060;2022-11-20T18:41:15;3.45;;;1.55;;
30378;SDS011;17168;49.164;9.060;2022-11-20T18:44:12;2.83;;;1.63;;
30378;SDS011;17168;49.164;9.060;2022-11-20T18:47:04;3.22;;;1.60;;
30378;SDS011;17168;49.164;9.060;2022-11-20T18:49:46;3.88;;;1.70;;
30378;SDS011;17168;49.164;9.060;2022-11-20T18:52:23;1.88;;;1.20;;
30378;SDS011;17168;49.164;9.060;2022-11-20T18:54:56;2.60;;;1.80;;
30378;SDS011;17168;49.164;9.060;2022-11-20T18:57:28;2.15;;;0.73;;
30378;SDS011;17168;49.164;9.060;2022-11-20T19:00:03;1.30;;;1.00;;
30378;SDS011;17168;49.164;9.060;2022-11-20T19:02:40;1.33;;;0.70;;
30378;SDS011;17168;49.164;9.060;2022-11-20T19:05:13;1.77;;;0.57;;
30378;SDS011;17168;49.164;9.060;2022-11-20T19:07:45;1.13;;;0.90;;
30378;SDS011;17168;49.164;9.060;2022-11-20T19:10:17;2.00;;;1.00;;
30378;SDS011;17168;49.164;9.060;2022-11-20T20:09:37;3.30;;;1.52;;
30378;SDS011;17168;49.164;9.060;2022-11-20T20:12:09;5.43;;;2.17;;
30378;SDS011;17168;49.164;9.060;2022-11-20T20:14:40;2.17;;;1.77;;
30378;SDS011;17168;49.164;9.060;2022-11-20T20:17:14;5.47;;;1.75;;
30378;SDS011;17168;49.164;9.060;2022-11-20T20:19:45;3.78;;;1.77;;
30378;SDS011;17168;49.164;9.060;2022-11-20T20:22:17;3.42;;;1.70;;
30378;SDS011;17168;49.164;9.060;2022-11-20T20:24:49;3.03;;;1.33;;
30378;SDS011;17168;49.164;9.060;2022-11-20T20:27:22;2.05;;;1.10;;
30378;SDS011;17168;49.164;9.060;2022-11-20T20:29:54;1.35;;;0.90;;
30378;SDS011;17168;49.164;9.060;2022-11-20T20:35:00;3.50;;;0.75;;
30378;SDS011;17168;49.164;9.060;2022-11-20T20:37:32;0.98;;;0.65;;
30378;SDS011;17168;49.164;9.060;2022-11-20T20:42:42;1.95;;;0.90;;
30378;SDS011;17168;49.164;9.060;2022-11-20T20:45:14;0.80;;;0.80;;
30378;SDS011;17168;49.164;9.060;2022-11-20T20:47:47;0.40;;;0.40;;
